This is the latest recevied weather packets stored in our database for station/object N9XTN-3. If no packets are shown the sender has not sent any weather packets the latest 10 day(s).
| Time | Temp. | Humidity | Pressure | Rain* | Wind** | Luminosity | Snow |
|---|---|---|---|---|---|---|---|
| 1777939216 | 19.44° C | 33% | 1004.5 hPa | 0 mm | - | - | - |
| 1777937716 | 21.11° C | 31% | 1004.4 hPa | 0 mm | - | - | - |
| 1777932616 | 23.33° C | 27% | 1003.2 hPa | 0 mm | - | - | - |
| 1777929916 | 25° C | 26% | 1002.8 hPa | 0 mm | - | - | - |
| 1777928416 | 25° C | 25% | 1002.4 hPa | 0 mm | - | - | - |
| 1777928116 | 25.56° C | 26% | 1002.5 hPa | 0 mm | - | - | - |
| 1777927216 | 25.56° C | 26% | 1002.5 hPa | 0 mm | - | - | - |
| 1777923616 | 25.56° C | 30% | 1002.5 hPa | 0 mm | - | - | - |
| 1777923016 | 26.11° C | 32% | 1002.2 hPa | 0 mm | - | - | - |
| 1777920016 | 26.11° C | 33% | 1001.9 hPa | 0 mm | - | - | - |
| 1777919716 | 26.11° C | 30% | 1001.9 hPa | 0 mm | - | - | - |
| 1777917316 | 26.67° C | 30% | 1001.8 hPa | 0 mm | - | - | - |
| 1777917016 | 26.67° C | 29% | 1001.9 hPa | 0 mm | - | - | - |
| 1777914316 | 25.56° C | 32% | 1002 hPa | 0 mm | - | - | - |
| 1777912816 | 25.56° C | 32% | 1002.5 hPa | 0 mm | - | - | - |
| 1777911317 | 25° C | 32% | 1002.2 hPa | 0 mm | - | - | - |
| 1777910116 | 24.44° C | 39% | 1002.1 hPa | 0 mm | - | - | - |
| 1777909216 | 23.33° C | 39% | 1002 hPa | 0 mm | - | - | - |
| 1777908616 | 22.78° C | 42% | 1002 hPa | 0 mm | - | - | - |
| 1777907116 | 21.67° C | 40% | 1002.1 hPa | 0 mm | - | - | - |
| 1777904736 | 18.89° C | 50% | 1002.2 hPa | 0 mm | - | - | - |
| 1777903216 | 17.22° C | 55% | 1002.5 hPa | 0 mm | - | - | - |
| 1777902016 | 15.56° C | 60% | 1002.6 hPa | 0 mm | - | - | - |
| 1777901716 | 15° C | 61% | 1002.6 hPa | 0 mm | - | - | - |
| 1777901416 | 15° C | 63% | 1002.7 hPa | 0 mm | - | - | - |
* Rain latest hour (hover to see other rain measurements)
** Current wind speed in m/s (hover to see current wind gust speed)